sensor_id;sensor_type;location;lat;lon;timestamp;P1;durP1;ratioP1;P2;durP2;ratioP2
3133;SDS011;1577;49.912;10.924;2022-08-19T00:02:05;22.97;;;16.60;;
3133;SDS011;1577;49.912;10.924;2022-08-19T00:04:32;24.73;;;16.70;;
3133;SDS011;1577;49.912;10.924;2022-08-19T00:07:01;22.13;;;16.50;;
3133;SDS011;1577;49.912;10.924;2022-08-19T00:09:28;22.27;;;16.80;;
3133;SDS011;1577;49.912;10.924;2022-08-19T00:11:54;21.63;;;16.70;;
3133;SDS011;1577;49.912;10.924;2022-08-19T00:14:21;21.80;;;16.90;;
3133;SDS011;1577;49.912;10.924;2022-08-19T00:16:47;22.97;;;17.07;;
3133;SDS011;1577;49.912;10.924;2022-08-19T00:19:14;24.83;;;18.13;;
3133;SDS011;1577;49.912;10.924;2022-08-19T00:21:41;26.37;;;18.10;;
3133;SDS011;1577;49.912;10.924;2022-08-19T00:24:07;23.23;;;17.53;;
3133;SDS011;1577;49.912;10.924;2022-08-19T00:26:35;24.10;;;18.50;;
3133;SDS011;1577;49.912;10.924;2022-08-19T00:29:01;25.10;;;18.73;;
3133;SDS011;1577;49.912;10.924;2022-08-19T00:31:27;23.27;;;17.73;;
3133;SDS011;1577;49.912;10.924;2022-08-19T00:33:53;26.30;;;18.00;;
3133;SDS011;1577;49.912;10.924;2022-08-19T00:36:19;26.57;;;19.80;;
3133;SDS011;1577;49.912;10.924;2022-08-19T00:38:45;24.77;;;18.20;;
3133;SDS011;1577;49.912;10.924;2022-08-19T00:41:13;25.67;;;18.57;;
3133;SDS011;1577;49.912;10.924;2022-08-19T00:43:41;25.07;;;18.47;;
3133;SDS011;1577;49.912;10.924;2022-08-19T00:46:07;27.27;;;18.43;;
3133;SDS011;1577;49.912;10.924;2022-08-19T00:48:33;28.03;;;19.80;;
3133;SDS011;1577;49.912;10.924;2022-08-19T00:50:59;27.73;;;19.30;;
3133;SDS011;1577;49.912;10.924;2022-08-19T00:53:27;30.23;;;19.80;;
3133;SDS011;1577;49.912;10.924;2022-08-19T00:55:54;31.30;;;20.37;;
3133;SDS011;1577;49.912;10.924;2022-08-19T00:58:30;26.50;;;19.40;;
3133;SDS011;1577;49.912;10.924;2022-08-19T01:00:59;26.27;;;20.07;;
3133;SDS011;1577;49.912;10.924;2022-08-19T01:03:25;28.63;;;21.07;;
3133;SDS011;1577;49.912;10.924;2022-08-19T01:05:51;26.90;;;20.13;;
3133;SDS011;1577;49.912;10.924;2022-08-19T01:08:19;26.37;;;20.40;;
3133;SDS011;1577;49.912;10.924;2022-08-19T01:10:46;26.73;;;19.80;;
3133;SDS011;1577;49.912;10.924;2022-08-19T01:13:15;24.70;;;18.90;;
3133;SDS011;1577;49.912;10.924;2022-08-19T01:15:45;28.60;;;21.10;;
3133;SDS011;1577;49.912;10.924;2022-08-19T01:18:15;29.10;;;19.47;;
3133;SDS011;1577;49.912;10.924;2022-08-19T01:20:43;34.00;;;19.43;;
3133;SDS011;1577;49.912;10.924;2022-08-19T01:23:09;26.83;;;19.83;;
3133;SDS011;1577;49.912;10.924;2022-08-19T01:25:39;25.57;;;18.67;;
3133;SDS011;1577;49.912;10.924;2022-08-19T01:30:45;28.90;;;19.47;;
3133;SDS011;1577;49.912;10.924;2022-08-19T01:33:11;25.73;;;18.03;;
3133;SDS011;1577;49.912;10.924;2022-08-19T01:35:37;25.27;;;19.07;;
3133;SDS011;1577;49.912;10.924;2022-08-19T01:38:04;30.50;;;21.13;;
3133;SDS011;1577;49.912;10.924;2022-08-19T01:40:33;32.60;;;21.67;;
3133;SDS011;1577;49.912;10.924;2022-08-19T01:43:00;28.03;;;19.90;;
3133;SDS011;1577;49.912;10.924;2022-08-19T01:45:28;28.37;;;21.33;;
3133;SDS011;1577;49.912;10.924;2022-08-19T01:47:56;28.97;;;21.53;;
3133;SDS011;1577;49.912;10.924;2022-08-19T01:50:22;29.80;;;21.13;;
3133;SDS011;1577;49.912;10.924;2022-08-19T01:52:49;27.27;;;19.80;;
3133;SDS011;1577;49.912;10.924;2022-08-19T01:55:16;28.77;;;19.90;;
3133;SDS011;1577;49.912;10.924;2022-08-19T01:57:46;26.73;;;19.13;;
3133;SDS011;1577;49.912;10.924;2022-08-19T02:00:16;30.23;;;19.37;;
3133;SDS011;1577;49.912;10.924;2022-08-19T02:02:43;25.00;;;20.50;;
3133;SDS011;1577;49.912;10.924;2022-08-19T02:05:08;27.70;;;20.87;;
3133;SDS011;1577;49.912;10.924;2022-08-19T02:07:35;25.57;;;19.00;;
3133;SDS011;1577;49.912;10.924;2022-08-19T02:10:02;28.63;;;19.50;;
3133;SDS011;1577;49.912;10.924;2022-08-19T02:12:33;25.80;;;20.70;;
3133;SDS011;1577;49.912;10.924;2022-08-19T02:14:59;25.70;;;19.07;;
3133;SDS011;1577;49.912;10.924;2022-08-19T02:17:27;28.00;;;20.03;;
3133;SDS011;1577;49.912;10.924;2022-08-19T02:19:54;25.17;;;18.80;;
3133;SDS011;1577;49.912;10.924;2022-08-19T02:22:20;25.43;;;19.07;;
3133;SDS011;1577;49.912;10.924;2022-08-19T02:24:46;26.00;;;18.00;;
3133;SDS011;1577;49.912;10.924;2022-08-19T02:27:13;26.23;;;18.90;;
3133;SDS011;1577;49.912;10.924;2022-08-19T02:29:39;27.57;;;19.87;;
3133;SDS011;1577;49.912;10.924;2022-08-19T02:32:06;27.33;;;19.40;;
3133;SDS011;1577;49.912;10.924;2022-08-19T02:34:32;23.83;;;18.20;;
3133;SDS011;1577;49.912;10.924;2022-08-19T02:36:58;27.90;;;19.13;;
3133;SDS011;1577;49.912;10.924;2022-08-19T02:39:23;26.67;;;18.70;;
3133;SDS011;1577;49.912;10.924;2022-08-19T02:41:49;26.30;;;19.37;;
3133;SDS011;1577;49.912;10.924;2022-08-19T02:44:15;28.37;;;19.63;;
3133;SDS011;1577;49.912;10.924;2022-08-19T02:46:41;25.57;;;18.90;;
3133;SDS011;1577;49.912;10.924;2022-08-19T02:49:08;32.77;;;21.37;;
3133;SDS011;1577;49.912;10.924;2022-08-19T02:51:38;26.50;;;18.17;;
3133;SDS011;1577;49.912;10.924;2022-08-19T02:54:06;28.87;;;20.53;;
3133;SDS011;1577;49.912;10.924;2022-08-19T02:56:36;33.37;;;21.77;;
3133;SDS011;1577;49.912;10.924;2022-08-19T02:59:04;26.47;;;19.57;;
3133;SDS011;1577;49.912;10.924;2022-08-19T03:01:36;26.83;;;19.17;;
3133;SDS011;1577;49.912;10.924;2022-08-19T03:04:04;26.20;;;19.43;;
3133;SDS011;1577;49.912;10.924;2022-08-19T03:06:33;26.63;;;19.53;;
3133;SDS011;1577;49.912;10.924;2022-08-19T03:09:02;29.20;;;20.60;;
3133;SDS011;1577;49.912;10.924;2022-08-19T03:11:29;31.77;;;20.73;;
3133;SDS011;1577;49.912;10.924;2022-08-19T03:13:56;25.87;;;18.93;;
3133;SDS011;1577;49.912;10.924;2022-08-19T03:16:23;28.87;;;20.63;;
3133;SDS011;1577;49.912;10.924;2022-08-19T03:18:52;26.03;;;19.97;;
3133;SDS011;1577;49.912;10.924;2022-08-19T03:21:21;29.63;;;19.30;;
3133;SDS011;1577;49.912;10.924;2022-08-19T03:23:55;25.27;;;18.83;;
3133;SDS011;1577;49.912;10.924;2022-08-19T03:26:22;23.30;;;18.23;;
3133;SDS011;1577;49.912;10.924;2022-08-19T03:28:48;26.50;;;20.17;;
3133;SDS011;1577;49.912;10.924;2022-08-19T03:31:16;26.10;;;19.83;;
3133;SDS011;1577;49.912;10.924;2022-08-19T03:33:46;27.77;;;18.73;;
3133;SDS011;1577;49.912;10.924;2022-08-19T03:36:13;29.43;;;18.50;;
3133;SDS011;1577;49.912;10.924;2022-08-19T03:38:42;24.87;;;17.07;;
3133;SDS011;1577;49.912;10.924;2022-08-19T03:41:12;25.90;;;17.87;;
3133;SDS011;1577;49.912;10.924;2022-08-19T03:43:41;30.30;;;20.50;;
3133;SDS011;1577;49.912;10.924;2022-08-19T03:46:10;25.90;;;19.10;;
3133;SDS011;1577;49.912;10.924;2022-08-19T03:48:39;26.70;;;19.87;;
3133;SDS011;1577;49.912;10.924;2022-08-19T03:51:06;25.17;;;17.90;;
3133;SDS011;1577;49.912;10.924;2022-08-19T03:53:34;28.67;;;18.97;;
3133;SDS011;1577;49.912;10.924;2022-08-19T03:56:00;24.40;;;19.00;;
3133;SDS011;1577;49.912;10.924;2022-08-19T03:58:27;28.47;;;18.50;;
3133;SDS011;1577;49.912;10.924;2022-08-19T04:00:55;26.63;;;18.63;;
3133;SDS011;1577;49.912;10.924;2022-08-19T04:03:21;28.43;;;20.60;;
3133;SDS011;1577;49.912;10.924;2022-08-19T04:05:47;25.57;;;18.27;;
3133;SDS011;1577;49.912;10.924;2022-08-19T04:08:13;31.00;;;19.87;;
3133;SDS011;1577;49.912;10.924;2022-08-19T04:10:45;30.73;;;20.00;;
3133;SDS011;1577;49.912;10.924;2022-08-19T04:13:12;28.57;;;20.10;;
3133;SDS011;1577;49.912;10.924;2022-08-19T04:15:39;26.60;;;19.20;;
3133;SDS011;1577;49.912;10.924;2022-08-19T04:18:07;28.20;;;20.67;;
3133;SDS011;1577;49.912;10.924;2022-08-19T04:20:41;28.33;;;19.50;;
3133;SDS011;1577;49.912;10.924;2022-08-19T04:23:08;27.73;;;20.10;;
3133;SDS011;1577;49.912;10.924;2022-08-19T04:25:35;26.93;;;20.60;;
3133;SDS011;1577;49.912;10.924;2022-08-19T04:28:01;25.00;;;19.37;;
3133;SDS011;1577;49.912;10.924;2022-08-19T04:30:27;30.33;;;19.73;;
3133;SDS011;1577;49.912;10.924;2022-08-19T04:32:53;27.70;;;20.20;;
3133;SDS011;1577;49.912;10.924;2022-08-19T04:35:18;27.30;;;20.40;;
3133;SDS011;1577;49.912;10.924;2022-08-19T04:37:44;28.13;;;20.20;;
3133;SDS011;1577;49.912;10.924;2022-08-19T04:40:10;31.10;;;21.13;;
3133;SDS011;1577;49.912;10.924;2022-08-19T04:42:54;27.50;;;20.10;;
3133;SDS011;1577;49.912;10.924;2022-08-19T04:45:19;28.10;;;19.43;;
3133;SDS011;1577;49.912;10.924;2022-08-19T04:47:45;27.30;;;18.50;;
3133;SDS011;1577;49.912;10.924;2022-08-19T04:50:10;27.77;;;19.40;;
3133;SDS011;1577;49.912;10.924;2022-08-19T04:52:37;26.70;;;18.30;;
3133;SDS011;1577;49.912;10.924;2022-08-19T04:55:08;25.10;;;18.03;;
3133;SDS011;1577;49.912;10.924;2022-08-19T04:57:35;24.37;;;18.13;;
3133;SDS011;1577;49.912;10.924;2022-08-19T05:00:05;26.90;;;17.43;;
3133;SDS011;1577;49.912;10.924;2022-08-19T05:02:31;24.27;;;17.77;;
3133;SDS011;1577;49.912;10.924;2022-08-19T05:04:57;29.23;;;18.30;;
3133;SDS011;1577;49.912;10.924;2022-08-19T05:07:25;27.57;;;19.40;;
3133;SDS011;1577;49.912;10.924;2022-08-19T05:09:51;28.37;;;18.33;;
3133;SDS011;1577;49.912;10.924;2022-08-19T05:12:17;27.57;;;17.47;;
3133;SDS011;1577;49.912;10.924;2022-08-19T05:14:44;25.80;;;17.57;;
3133;SDS011;1577;49.912;10.924;2022-08-19T05:17:10;24.10;;;18.30;;
3133;SDS011;1577;49.912;10.924;2022-08-19T05:19:36;27.53;;;19.27;;
3133;SDS011;1577;49.912;10.924;2022-08-19T05:22:21;26.90;;;18.53;;
3133;SDS011;1577;49.912;10.924;2022-08-19T05:25:04;26.00;;;18.10;;
3133;SDS011;1577;49.912;10.924;2022-08-19T05:27:32;27.83;;;19.70;;
3133;SDS011;1577;49.912;10.924;2022-08-19T05:29:58;26.37;;;18.53;;
3133;SDS011;1577;49.912;10.924;2022-08-19T05:32:24;32.90;;;20.40;;
3133;SDS011;1577;49.912;10.924;2022-08-19T05:34:50;31.17;;;20.50;;
3133;SDS011;1577;49.912;10.924;2022-08-19T05:37:15;27.33;;;18.60;;
3133;SDS011;1577;49.912;10.924;2022-08-19T05:39:42;27.47;;;19.40;;
3133;SDS011;1577;49.912;10.924;2022-08-19T05:42:08;27.27;;;20.23;;
3133;SDS011;1577;49.912;10.924;2022-08-19T05:44:38;28.63;;;18.70;;
3133;SDS011;1577;49.912;10.924;2022-08-19T05:47:09;27.50;;;19.40;;
3133;SDS011;1577;49.912;10.924;2022-08-19T05:49:36;25.93;;;18.57;;
3133;SDS011;1577;49.912;10.924;2022-08-19T05:52:06;27.10;;;18.50;;
3133;SDS011;1577;49.912;10.924;2022-08-19T05:54:36;29.27;;;19.73;;
3133;SDS011;1577;49.912;10.924;2022-08-19T05:57:05;27.20;;;19.47;;
3133;SDS011;1577;49.912;10.924;2022-08-19T05:59:30;27.00;;;18.20;;
3133;SDS011;1577;49.912;10.924;2022-08-19T06:01:58;28.07;;;18.00;;
3133;SDS011;1577;49.912;10.924;2022-08-19T06:04:24;27.97;;;19.00;;
3133;SDS011;1577;49.912;10.924;2022-08-19T06:06:50;29.70;;;19.60;;
3133;SDS011;1577;49.912;10.924;2022-08-19T06:09:17;25.57;;;18.20;;
3133;SDS011;1577;49.912;10.924;2022-08-19T06:11:45;26.90;;;19.33;;
3133;SDS011;1577;49.912;10.924;2022-08-19T06:14:19;28.07;;;20.37;;
3133;SDS011;1577;49.912;10.924;2022-08-19T06:16:48;25.13;;;18.30;;
3133;SDS011;1577;49.912;10.924;2022-08-19T06:19:17;24.87;;;19.10;;
3133;SDS011;1577;49.912;10.924;2022-08-19T06:21:45;26.27;;;18.73;;
3133;SDS011;1577;49.912;10.924;2022-08-19T06:24:13;27.73;;;19.47;;
3133;SDS011;1577;49.912;10.924;2022-08-19T06:26:42;28.27;;;19.60;;
3133;SDS011;1577;49.912;10.924;2022-08-19T06:29:10;26.37;;;20.90;;
3133;SDS011;1577;49.912;10.924;2022-08-19T06:31:36;24.27;;;18.57;;
3133;SDS011;1577;49.912;10.924;2022-08-19T06:34:05;23.43;;;17.17;;
3133;SDS011;1577;49.912;10.924;2022-08-19T06:36:33;26.90;;;19.27;;
3133;SDS011;1577;49.912;10.924;2022-08-19T06:39:01;25.90;;;18.83;;
3133;SDS011;1577;49.912;10.924;2022-08-19T06:41:36;23.70;;;17.50;;
3133;SDS011;1577;49.912;10.924;2022-08-19T06:44:03;25.97;;;18.47;;
3133;SDS011;1577;49.912;10.924;2022-08-19T06:46:29;28.70;;;19.40;;
3133;SDS011;1577;49.912;10.924;2022-08-19T06:48:55;25.83;;;18.27;;
3133;SDS011;1577;49.912;10.924;2022-08-19T06:51:22;29.23;;;18.80;;
3133;SDS011;1577;49.912;10.924;2022-08-19T06:53:50;27.90;;;19.33;;
3133;SDS011;1577;49.912;10.924;2022-08-19T06:56:18;23.53;;;18.17;;
3133;SDS011;1577;49.912;10.924;2022-08-19T06:58:46;26.70;;;17.93;;
3133;SDS011;1577;49.912;10.924;2022-08-19T07:01:15;28.10;;;19.00;;
3133;SDS011;1577;49.912;10.924;2022-08-19T07:03:41;21.73;;;16.70;;
3133;SDS011;1577;49.912;10.924;2022-08-19T07:06:08;22.03;;;17.00;;
3133;SDS011;1577;49.912;10.924;2022-08-19T07:08:36;24.20;;;16.63;;
3133;SDS011;1577;49.912;10.924;2022-08-19T07:11:09;23.60;;;17.40;;
3133;SDS011;1577;49.912;10.924;2022-08-19T07:13:37;23.73;;;17.97;;
3133;SDS011;1577;49.912;10.924;2022-08-19T07:16:07;25.47;;;18.83;;
3133;SDS011;1577;49.912;10.924;2022-08-19T07:18:34;21.80;;;16.63;;
3133;SDS011;1577;49.912;10.924;2022-08-19T07:23:32;22.10;;;17.40;;
3133;SDS011;1577;49.912;10.924;2022-08-19T07:26:03;26.20;;;17.77;;
3133;SDS011;1577;49.912;10.924;2022-08-19T07:28:41;25.07;;;16.97;;
3133;SDS011;1577;49.912;10.924;2022-08-19T07:31:10;26.10;;;18.57;;
3133;SDS011;1577;49.912;10.924;2022-08-19T07:33:38;24.83;;;18.80;;
3133;SDS011;1577;49.912;10.924;2022-08-19T07:36:05;24.23;;;16.50;;
3133;SDS011;1577;49.912;10.924;2022-08-19T07:38:33;26.13;;;15.97;;
3133;SDS011;1577;49.912;10.924;2022-08-19T07:40:59;28.03;;;18.20;;
3133;SDS011;1577;49.912;10.924;2022-08-19T07:43:26;22.73;;;16.13;;
3133;SDS011;1577;49.912;10.924;2022-08-19T07:45:53;24.43;;;17.07;;
3133;SDS011;1577;49.912;10.924;2022-08-19T07:48:24;21.73;;;16.43;;
3133;SDS011;1577;49.912;10.924;2022-08-19T07:50:56;25.03;;;16.37;;
3133;SDS011;1577;49.912;10.924;2022-08-19T07:53:26;22.23;;;15.47;;
3133;SDS011;1577;49.912;10.924;2022-08-19T07:55:52;23.77;;;17.40;;
3133;SDS011;1577;49.912;10.924;2022-08-19T07:58:19;20.70;;;15.10;;
3133;SDS011;1577;49.912;10.924;2022-08-19T08:00:47;22.83;;;15.57;;
3133;SDS011;1577;49.912;10.924;2022-08-19T08:03:15;23.10;;;15.73;;
3133;SDS011;1577;49.912;10.924;2022-08-19T08:05:42;22.90;;;16.23;;
3133;SDS011;1577;49.912;10.924;2022-08-19T08:08:27;22.70;;;15.37;;
3133;SDS011;1577;49.912;10.924;2022-08-19T08:11:12;21.80;;;15.10;;
3133;SDS011;1577;49.912;10.924;2022-08-19T08:13:41;19.77;;;15.00;;
3133;SDS011;1577;49.912;10.924;2022-08-19T08:16:07;24.43;;;15.93;;
3133;SDS011;1577;49.912;10.924;2022-08-19T08:18:32;17.00;;;13.33;;
3133;SDS011;1577;49.912;10.924;2022-08-19T08:21:06;22.53;;;14.47;;
3133;SDS011;1577;49.912;10.924;2022-08-19T08:23:31;21.90;;;15.53;;
3133;SDS011;1577;49.912;10.924;2022-08-19T08:25:57;22.37;;;14.67;;
3133;SDS011;1577;49.912;10.924;2022-08-19T08:28:24;20.43;;;14.27;;
3133;SDS011;1577;49.912;10.924;2022-08-19T08:30:50;15.97;;;12.57;;
3133;SDS011;1577;49.912;10.924;2022-08-19T08:33:17;17.73;;;13.20;;
3133;SDS011;1577;49.912;10.924;2022-08-19T08:35:44;16.67;;;12.20;;
3133;SDS011;1577;49.912;10.924;2022-08-19T08:38:10;16.30;;;11.97;;
3133;SDS011;1577;49.912;10.924;2022-08-19T08:40:50;17.23;;;12.40;;
3133;SDS011;1577;49.912;10.924;2022-08-19T08:49:54;13.77;;;11.17;;
3133;SDS011;1577;49.912;10.924;2022-08-19T08:52:08;14.10;;;11.07;;
3133;SDS011;1577;49.912;10.924;2022-08-19T08:54:43;13.57;;;11.93;;
3133;SDS011;1577;49.912;10.924;2022-08-19T08:57:18;14.80;;;11.67;;
3133;SDS011;1577;49.912;10.924;2022-08-19T08:59:57;14.03;;;11.30;;
3133;SDS011;1577;49.912;10.924;2022-08-19T09:02:25;14.80;;;11.23;;
3133;SDS011;1577;49.912;10.924;2022-08-19T09:04:51;14.33;;;11.60;;
3133;SDS011;1577;49.912;10.924;2022-08-19T09:07:22;14.47;;;10.90;;
3133;SDS011;1577;49.912;10.924;2022-08-19T09:10:04;20.67;;;14.30;;
3133;SDS011;1577;49.912;10.924;2022-08-19T09:15:35;14.33;;;11.00;;
3133;SDS011;1577;49.912;10.924;2022-08-19T09:18:05;14.03;;;11.40;;
3133;SDS011;1577;49.912;10.924;2022-08-19T09:20:33;15.73;;;12.73;;
3133;SDS011;1577;49.912;10.924;2022-08-19T09:22:58;16.00;;;11.40;;
3133;SDS011;1577;49.912;10.924;2022-08-19T09:25:24;14.13;;;11.53;;
3133;SDS011;1577;49.912;10.924;2022-08-19T09:27:51;11.60;;;10.33;;
3133;SDS011;1577;49.912;10.924;2022-08-19T09:30:28;12.73;;;11.30;;
3133;SDS011;1577;49.912;10.924;2022-08-19T09:32:56;11.83;;;10.60;;
3133;SDS011;1577;49.912;10.924;2022-08-19T09:35:23;10.53;;;9.40;;
3133;SDS011;1577;49.912;10.924;2022-08-19T09:37:51;11.87;;;10.10;;
3133;SDS011;1577;49.912;10.924;2022-08-19T09:40:18;12.53;;;10.17;;
3133;SDS011;1577;49.912;10.924;2022-08-19T09:42:45;11.60;;;10.40;;
3133;SDS011;1577;49.912;10.924;2022-08-19T09:45:12;13.27;;;10.03;;
3133;SDS011;1577;49.912;10.924;2022-08-19T09:47:43;11.10;;;9.90;;
3133;SDS011;1577;49.912;10.924;2022-08-19T09:50:09;13.87;;;10.63;;
3133;SDS011;1577;49.912;10.924;2022-08-19T09:52:36;17.17;;;10.90;;
3133;SDS011;1577;49.912;10.924;2022-08-19T09:55:06;12.50;;;10.13;;
3133;SDS011;1577;49.912;10.924;2022-08-19T09:57:33;13.30;;;10.70;;
3133;SDS011;1577;49.912;10.924;2022-08-19T09:59:59;13.33;;;11.40;;
3133;SDS011;1577;49.912;10.924;2022-08-19T10:02:25;14.67;;;11.00;;
3133;SDS011;1577;49.912;10.924;2022-08-19T10:04:51;13.63;;;11.43;;
3133;SDS011;1577;49.912;10.924;2022-08-19T10:07:52;12.47;;;11.17;;
3133;SDS011;1577;49.912;10.924;2022-08-19T10:10:18;13.30;;;10.70;;
3133;SDS011;1577;49.912;10.924;2022-08-19T10:12:43;14.00;;;10.73;;
3133;SDS011;1577;49.912;10.924;2022-08-19T10:15:12;13.13;;;11.73;;
3133;SDS011;1577;49.912;10.924;2022-08-19T10:17:38;13.80;;;11.23;;
3133;SDS011;1577;49.912;10.924;2022-08-19T10:20:03;13.60;;;11.10;;
3133;SDS011;1577;49.912;10.924;2022-08-19T10:22:30;16.60;;;11.33;;
3133;SDS011;1577;49.912;10.924;2022-08-19T10:24:56;15.37;;;12.00;;
3133;SDS011;1577;49.912;10.924;2022-08-19T10:27:21;19.17;;;13.17;;
3133;SDS011;1577;49.912;10.924;2022-08-19T10:29:47;16.37;;;13.47;;
3133;SDS011;1577;49.912;10.924;2022-08-19T10:32:13;15.57;;;12.97;;
3133;SDS011;1577;49.912;10.924;2022-08-19T10:34:38;16.40;;;12.47;;
3133;SDS011;1577;49.912;10.924;2022-08-19T10:37:05;18.47;;;14.20;;
3133;SDS011;1577;49.912;10.924;2022-08-19T10:39:32;17.53;;;13.43;;
3133;SDS011;1577;49.912;10.924;2022-08-19T10:42:03;18.87;;;13.50;;
3133;SDS011;1577;49.912;10.924;2022-08-19T10:44:31;17.13;;;14.23;;
3133;SDS011;1577;49.912;10.924;2022-08-19T10:47:00;16.17;;;11.87;;
3133;SDS011;1577;49.912;10.924;2022-08-19T10:49:26;16.50;;;13.27;;
3133;SDS011;1577;49.912;10.924;2022-08-19T10:51:51;19.23;;;13.90;;
3133;SDS011;1577;49.912;10.924;2022-08-19T10:54:35;15.00;;;12.20;;
3133;SDS011;1577;49.912;10.924;2022-08-19T10:57:19;15.50;;;11.67;;
3133;SDS011;1577;49.912;10.924;2022-08-19T10:59:49;19.57;;;12.40;;
3133;SDS011;1577;49.912;10.924;2022-08-19T11:02:14;15.03;;;13.00;;
3133;SDS011;1577;49.912;10.924;2022-08-19T11:04:40;17.33;;;13.90;;
3133;SDS011;1577;49.912;10.924;2022-08-19T11:07:06;16.63;;;13.07;;
3133;SDS011;1577;49.912;10.924;2022-08-19T11:09:36;16.07;;;12.63;;
3133;SDS011;1577;49.912;10.924;2022-08-19T11:12:04;15.43;;;11.80;;
3133;SDS011;1577;49.912;10.924;2022-08-19T11:14:30;17.30;;;13.30;;
3133;SDS011;1577;49.912;10.924;2022-08-19T11:16:58;19.90;;;12.17;;
3133;SDS011;1577;49.912;10.924;2022-08-19T11:19:23;16.77;;;12.53;;
3133;SDS011;1577;49.912;10.924;2022-08-19T11:21:50;18.50;;;12.67;;
3133;SDS011;1577;49.912;10.924;2022-08-19T11:24:21;11.83;;;10.20;;
3133;SDS011;1577;49.912;10.924;2022-08-19T11:26:49;11.97;;;10.73;;
3133;SDS011;1577;49.912;10.924;2022-08-19T11:29:17;12.93;;;10.77;;
3133;SDS011;1577;49.912;10.924;2022-08-19T11:31:46;18.07;;;11.87;;
3133;SDS011;1577;49.912;10.924;2022-08-19T11:34:15;14.03;;;11.27;;
3133;SDS011;1577;49.912;10.924;2022-08-19T11:36:43;14.80;;;11.43;;
3133;SDS011;1577;49.912;10.924;2022-08-19T11:39:12;13.10;;;11.33;;
3133;SDS011;1577;49.912;10.924;2022-08-19T11:41:43;14.90;;;11.80;;
3133;SDS011;1577;49.912;10.924;2022-08-19T11:44:09;16.03;;;12.50;;
3133;SDS011;1577;49.912;10.924;2022-08-19T11:46:35;14.10;;;12.17;;
3133;SDS011;1577;49.912;10.924;2022-08-19T11:49:03;13.10;;;11.47;;
3133;SDS011;1577;49.912;10.924;2022-08-19T11:51:30;13.03;;;11.60;;
3133;SDS011;1577;49.912;10.924;2022-08-19T11:53:56;15.93;;;12.23;;
3133;SDS011;1577;49.912;10.924;2022-08-19T11:56:23;12.40;;;11.10;;
3133;SDS011;1577;49.912;10.924;2022-08-19T11:58:50;15.37;;;11.23;;
3133;SDS011;1577;49.912;10.924;2022-08-19T12:01:18;14.43;;;11.27;;
3133;SDS011;1577;49.912;10.924;2022-08-19T12:03:46;13.37;;;11.70;;
3133;SDS011;1577;49.912;10.924;2022-08-19T12:06:17;13.80;;;11.60;;
3133;SDS011;1577;49.912;10.924;2022-08-19T12:08:48;11.27;;;9.63;;
3133;SDS011;1577;49.912;10.924;2022-08-19T12:11:14;13.60;;;10.83;;
3133;SDS011;1577;49.912;10.924;2022-08-19T12:13:40;11.97;;;10.77;;
3133;SDS011;1577;49.912;10.924;2022-08-19T12:16:13;13.70;;;10.80;;
3133;SDS011;1577;49.912;10.924;2022-08-19T12:18:41;11.80;;;10.60;;
3133;SDS011;1577;49.912;10.924;2022-08-19T12:21:11;11.87;;;10.70;;
3133;SDS011;1577;49.912;10.924;2022-08-19T12:23:38;11.10;;;9.90;;
3133;SDS011;1577;49.912;10.924;2022-08-19T12:26:10;12.10;;;10.90;;
3133;SDS011;1577;49.912;10.924;2022-08-19T12:28:36;12.63;;;9.97;;
3133;SDS011;1577;49.912;10.924;2022-08-19T12:31:02;11.10;;;9.93;;
3133;SDS011;1577;49.912;10.924;2022-08-19T12:33:28;16.37;;;11.47;;
3133;SDS011;1577;49.912;10.924;2022-08-19T12:35:53;15.27;;;12.57;;
3133;SDS011;1577;49.912;10.924;2022-08-19T12:38:20;19.50;;;14.80;;
3133;SDS011;1577;49.912;10.924;2022-08-19T12:40:49;19.90;;;15.63;;
3133;SDS011;1577;49.912;10.924;2022-08-19T12:43:16;18.80;;;14.00;;
3133;SDS011;1577;49.912;10.924;2022-08-19T12:45:44;16.73;;;14.27;;
3133;SDS011;1577;49.912;10.924;2022-08-19T12:48:10;20.33;;;15.37;;
3133;SDS011;1577;49.912;10.924;2022-08-19T12:50:38;17.60;;;13.73;;
3133;SDS011;1577;49.912;10.924;2022-08-19T12:53:05;13.93;;;12.00;;
3133;SDS011;1577;49.912;10.924;2022-08-19T12:55:30;15.77;;;11.43;;
3133;SDS011;1577;49.912;10.924;2022-08-19T12:57:56;16.67;;;13.10;;
3133;SDS011;1577;49.912;10.924;2022-08-19T13:00:22;15.57;;;12.33;;
3133;SDS011;1577;49.912;10.924;2022-08-19T13:02:49;18.03;;;12.90;;
3133;SDS011;1577;49.912;10.924;2022-08-19T13:05:18;17.10;;;12.93;;
3133;SDS011;1577;49.912;10.924;2022-08-19T13:07:50;16.53;;;12.30;;
3133;SDS011;1577;49.912;10.924;2022-08-19T13:10:18;18.00;;;12.70;;
3133;SDS011;1577;49.912;10.924;2022-08-19T13:12:46;16.57;;;12.40;;
3133;SDS011;1577;49.912;10.924;2022-08-19T13:15:14;18.33;;;11.60;;
3133;SDS011;1577;49.912;10.924;2022-08-19T13:17:45;17.70;;;12.20;;
3133;SDS011;1577;49.912;10.924;2022-08-19T13:20:15;16.43;;;12.70;;
3133;SDS011;1577;49.912;10.924;2022-08-19T13:22:43;16.17;;;11.77;;
3133;SDS011;1577;49.912;10.924;2022-08-19T13:25:10;12.63;;;10.17;;
3133;SDS011;1577;49.912;10.924;2022-08-19T13:27:37;11.30;;;8.50;;
3133;SDS011;1577;49.912;10.924;2022-08-19T13:30:04;11.10;;;9.13;;
3133;SDS011;1577;49.912;10.924;2022-08-19T13:32:51;10.93;;;9.17;;
3133;SDS011;1577;49.912;10.924;2022-08-19T13:35:35;13.40;;;8.97;;
3133;SDS011;1577;49.912;10.924;2022-08-19T13:38:05;13.67;;;10.70;;
3133;SDS011;1577;49.912;10.924;2022-08-19T13:40:31;12.47;;;10.40;;
3133;SDS011;1577;49.912;10.924;2022-08-19T13:42:58;18.70;;;12.00;;
3133;SDS011;1577;49.912;10.924;2022-08-19T13:45:26;13.63;;;11.87;;
3133;SDS011;1577;49.912;10.924;2022-08-19T13:47:53;17.27;;;12.77;;
3133;SDS011;1577;49.912;10.924;2022-08-19T13:50:22;14.97;;;12.03;;
3133;SDS011;1577;49.912;10.924;2022-08-19T13:52:50;18.30;;;12.60;;
3133;SDS011;1577;49.912;10.924;2022-08-19T13:55:17;14.90;;;12.47;;
3133;SDS011;1577;49.912;10.924;2022-08-19T13:57:43;17.23;;;13.47;;
3133;SDS011;1577;49.912;10.924;2022-08-19T14:00:10;17.13;;;13.20;;
3133;SDS011;1577;49.912;10.924;2022-08-19T14:02:39;16.40;;;13.40;;
3133;SDS011;1577;49.912;10.924;2022-08-19T14:05:07;19.23;;;14.10;;
3133;SDS011;1577;49.912;10.924;2022-08-19T14:07:35;20.10;;;14.20;;
3133;SDS011;1577;49.912;10.924;2022-08-19T14:10:01;25.53;;;17.53;;
3133;SDS011;1577;49.912;10.924;2022-08-19T14:12:28;21.00;;;16.17;;
3133;SDS011;1577;49.912;10.924;2022-08-19T14:14:54;18.23;;;14.90;;
3133;SDS011;1577;49.912;10.924;2022-08-19T14:17:20;19.43;;;14.00;;
3133;SDS011;1577;49.912;10.924;2022-08-19T14:19:46;17.63;;;14.57;;
3133;SDS011;1577;49.912;10.924;2022-08-19T14:22:12;19.27;;;14.87;;
3133;SDS011;1577;49.912;10.924;2022-08-19T14:24:38;18.77;;;13.63;;
3133;SDS011;1577;49.912;10.924;2022-08-19T14:27:06;17.50;;;13.50;;
3133;SDS011;1577;49.912;10.924;2022-08-19T14:29:33;15.70;;;12.77;;
3133;SDS011;1577;49.912;10.924;2022-08-19T14:31:59;18.97;;;12.17;;
3133;SDS011;1577;49.912;10.924;2022-08-19T14:34:25;15.03;;;12.03;;
3133;SDS011;1577;49.912;10.924;2022-08-19T14:36:51;13.10;;;10.57;;
3133;SDS011;1577;49.912;10.924;2022-08-19T14:39:17;14.33;;;10.93;;
3133;SDS011;1577;49.912;10.924;2022-08-19T14:41:43;13.97;;;11.50;;
3133;SDS011;1577;49.912;10.924;2022-08-19T14:44:09;16.17;;;11.93;;
3133;SDS011;1577;49.912;10.924;2022-08-19T14:46:37;16.17;;;11.97;;
3133;SDS011;1577;49.912;10.924;2022-08-19T14:49:03;13.83;;;11.30;;
3133;SDS011;1577;49.912;10.924;2022-08-19T14:51:29;13.83;;;11.40;;
3133;SDS011;1577;49.912;10.924;2022-08-19T14:53:56;14.03;;;11.17;;
3133;SDS011;1577;49.912;10.924;2022-08-19T14:56:23;13.57;;;11.60;;